Time;durP1;ratioP1;P1;durP2;ratioP2;P2;SDS_P1;SDS_P2;PMS_P1;PMS_P2;Temp;Humidity;BMP_temperature;BMP_pressure;BME280_temperature;BME280_humidity;BME280_pressure;Samples;Min_cycle;Max_cycle;Signal;HPM_P1;HPM_P2
2023/04/08 00:02:14;;;;;;;18.02;7.57;;;;;;;;;;5047496;28;20081;-79
2023/04/08 00:04:40;;;;;;;21.58;8.10;;;;;;;;;;5055725;28;20029;-78
2023/04/08 00:07:06;;;;;;;20.38;6.50;;;;;;;;;;5055755;28;20365;-78
2023/04/08 00:09:33;;;;;;;16.38;5.93;;;;;;;;;;5051125;28;20250;-78
2023/04/08 00:12:00;;;;;;;11.52;6.03;;;;;;;;;;5046657;28;20048;-78
2023/04/08 00:14:26;;;;;;;16.38;6.55;;;;;;;;;;5049438;28;20036;-78
2023/04/08 00:16:52;;;;;;;20.63;6.75;;;;;;;;;;5045672;28;20438;-79
2023/04/08 00:19:18;;;;;;;11.82;5.40;;;;;;;;;;5045160;28;20135;-78
2023/04/08 00:21:44;;;;;;;8.15;4.22;;;;;;;;;;5044022;28;20033;-78
2023/04/08 00:24:10;;;;;;;10.13;3.90;;;;;;;;;;5041663;28;20774;-78
2023/04/08 00:26:36;;;;;;;11.65;4.00;;;;;;;;;;5044679;28;20464;-78
2023/04/08 00:29:02;;;;;;;13.23;5.57;;;;;;;;;;5039713;28;20102;-77
2023/04/08 00:31:28;;;;;;;12.05;4.47;;;;;;;;;;5046946;28;20040;-78
2023/04/08 00:33:54;;;;;;;9.13;4.55;;;;;;;;;;5043238;28;20035;-78
2023/04/08 00:36:21;;;;;;;7.35;3.85;;;;;;;;;;5033343;28;20049;-78
2023/04/08 00:38:47;;;;;;;9.02;4.75;;;;;;;;;;5038031;28;20032;-78
2023/04/08 00:41:13;;;;;;;12.48;6.20;;;;;;;;;;5043433;28;20027;-78
2023/04/08 00:43:39;;;;;;;9.65;4.90;;;5.90;99.90;;;;;;5042771;28;20025;-78
2023/04/08 00:46:05;;;;;;;12.60;6.07;;;;;;;;;;5036979;28;20071;-78
2023/04/08 00:48:31;;;;;;;14.55;6.68;;;;;;;;;;5038861;28;20059;-78
2023/04/08 00:50:57;;;;;;;13.98;6.97;;;;;;;;;;5042834;28;20031;-79
2023/04/08 00:53:23;;;;;;;13.15;6.00;;;;;;;;;;5041604;28;20037;-77
2023/04/08 00:55:49;;;;;;;12.27;5.95;;;;;;;;;;5039465;28;20026;-78
2023/04/08 00:58:16;;;;;;;7.45;4.38;;;;;;;;;;5046132;28;20025;-77
2023/04/08 01:00:44;;;;;;;12.32;5.50;;;;;;;;;;5036266;28;20055;-78
2023/04/08 01:03:31;;;;;;;17.08;5.95;;;;;;;;;;5038836;28;20021;-77
2023/04/08 01:06:04;;;;;;;12.50;5.28;;;;;;;;;;5030242;28;20162;-78
2023/04/08 01:08:31;;;;;;;18.17;5.93;;;;;;;;;;5035152;28;20041;-78
2023/04/08 01:11:01;;;;;;;10.82;5.35;;;;;;;;;;5039469;28;20496;-79
2023/04/08 01:13:29;;;;;;;10.52;5.05;;;;;;;;;;5043452;28;20055;-78
2023/04/08 01:15:55;;;;;;;12.95;4.82;;;;;;;;;;5040880;28;20032;-78
2023/04/08 01:18:22;;;;;;;8.85;4.32;;;;;;;;;;5044644;28;20444;-78
2023/04/08 01:20:53;;;;;;;8.27;4.18;;;7.00;99.90;;;;;;5043405;28;20036;-79
2023/04/08 01:23:31;;;;;;;5.65;2.47;;;;;;;;;;5046938;28;20060;-79
2023/04/08 01:25:57;;;;;;;6.50;3.60;;;;;;;;;;5039371;28;20455;-79
2023/04/08 01:28:24;;;;;;;7.53;4.18;;;;;;;;;;5031196;28;20472;-79
2023/04/08 01:30:51;;;;;;;5.43;3.13;;;;;;;;;;5037322;28;20024;-79
2023/04/08 01:33:18;;;;;;;7.03;3.45;;;;;;;;;;5040638;28;20040;-78
2023/04/08 01:35:47;;;;;;;7.68;3.65;;;;;;;;;;5032649;28;20020;-78
2023/04/08 01:38:17;;;;;;;11.20;2.97;;;;;;;;;;5043017;28;20029;-78
2023/04/08 01:40:44;;;;;;;5.60;3.10;;;;;;;;;;5041750;28;20029;-78
2023/04/08 01:43:11;;;;;;;5.53;2.67;;;;;;;;;;5043340;28;20029;-78
2023/04/08 01:45:37;;;;;;;5.35;2.15;;;;;;;;;;5040516;28;20037;-78
2023/04/08 01:48:03;;;;;;;7.90;2.78;;;6.90;99.90;;;;;;5040569;28;20037;-79
2023/04/08 01:50:30;;;;;;;7.78;2.45;;;;;;;;;;5044765;28;20021;-78
2023/04/08 01:52:57;;;;;;;6.00;2.70;;;;;;;;;;5043518;28;20025;-79
2023/04/08 01:55:24;;;;;;;7.47;3.10;;;;;;;;;;5044914;28;20107;-78
2023/04/08 01:57:51;;;;;;;6.20;3.90;;;;;;;;;;5032341;28;20025;-78
2023/04/08 02:00:19;;;;;;;4.93;3.15;;;;;;;;;;5037118;28;20028;-80
2023/04/08 02:02:46;;;;;;;7.10;3.75;;;;;;;;;;5043612;28;20029;-81
2023/04/08 02:05:12;;;;;;;4.78;2.70;;;;;;;;;;5042426;28;20039;-81
2023/04/08 02:07:38;;;;;;;4.90;2.95;;;;;;;;;;5040324;28;20087;-80
2023/04/08 02:10:04;;;;;;;5.93;3.13;;;;;;;;;;5032408;28;20785;-79
2023/04/08 02:12:30;;;;;;;5.85;3.13;;;;;;;;;;5033348;28;22122;-81
2023/04/08 02:14:56;;;;;;;4.57;2.75;;;;;;;;;;5044229;28;20463;-79
2023/04/08 02:17:41;;;;;;;5.95;3.53;;;;;;;;;;5038900;28;20232;-81
2023/04/08 02:20:16;;;;;;;3.13;2.30;;;6.00;99.90;;;;;;5045163;28;20037;-81
2023/04/08 02:22:52;;;;;;;7.30;3.30;;;;;;;;;;5036666;28;20107;-80
2023/04/08 02:25:21;;;;;;;5.20;2.50;;;;;;;;;;5041612;28;20104;-80
2023/04/08 02:27:48;;;;;;;5.85;2.95;;;;;;;;;;5038939;28;20041;-80
2023/04/08 02:30:15;;;;;;;5.93;3.00;;;;;;;;;;5032270;28;20025;-81
2023/04/08 02:32:41;;;;;;;6.10;3.05;;;;;;;;;;5035723;28;20469;-81
2023/04/08 02:35:07;;;;;;;3.50;2.40;;;;;;;;;;5044927;28;20077;-80
2023/04/08 02:37:33;;;;;;;4.30;2.90;;;;;;;;;;5055735;28;20054;-80
2023/04/08 02:40:00;;;;;;;5.93;2.75;;;;;;;;;;5058490;28;20032;-80
2023/04/08 02:42:25;;;;;;;4.35;2.70;;;;;;;;;;5042415;28;20040;-80
2023/04/08 02:44:51;;;;;;;6.03;3.10;;;;;;;;;;5035590;28;20025;-80
2023/04/08 02:47:17;;;;;;;7.43;3.35;;;;;;;;;;5043063;28;20110;-80
2023/04/08 02:49:43;;;;;;;3.55;2.45;;;;;;;;;;5041782;28;20032;-80
2023/04/08 02:52:09;;;;;;;5.00;3.05;;;;;;;;;;5044893;28;20036;-80
2023/04/08 02:54:35;;;;;;;7.53;2.97;;;;;;;;;;5039856;28;20060;-80
2023/04/08 02:57:01;;;;;;;7.38;3.40;;;;;;;;;;5034535;28;20040;-80
2023/04/08 02:59:27;;;;;;;6.95;3.38;;;;;;;;;;5035679;28;20213;-79
2023/04/08 03:01:53;;;;;;;4.80;2.47;;;;;;;;;;5035592;28;20033;-79
2023/04/08 03:04:19;;;;;;;7.50;3.28;;;;;;;;;;5037248;28;20111;-80
2023/04/08 03:06:45;;;;;;;7.10;2.85;;;;;;;;;;5039475;28;20036;-79
2023/04/08 03:09:11;;;;;;;6.63;2.65;;;;;;;;;;5044258;28;20123;-79
2023/04/08 03:11:37;;;;;;;5.35;3.15;;;;;;;;;;5037493;28;20020;-80
2023/04/08 03:14:03;;;;;;;4.97;3.22;;;;;;;;;;5043729;28;20036;-80
2023/04/08 03:16:29;;;;;;;5.50;2.47;;;;;;;;;;5042544;28;20021;-80
2023/04/08 03:18:55;;;;;;;5.28;2.95;;;;;;;;;;5034162;28;20040;-79
2023/04/08 03:21:21;;;;;;;7.60;2.90;;;;;;;;;;5045683;28;20481;-79
2023/04/08 03:23:47;;;;;;;4.78;2.95;;;;;;;;;;5035121;28;20161;-79
2023/04/08 03:26:13;;;;;;;4.72;2.80;;;;;;;;;;5036373;28;20018;-81
2023/04/08 03:28:39;;;;;;;9.00;3.50;;;;;;;;;;5039901;28;20041;-79
2023/04/08 03:31:04;;;;;;;5.93;3.22;;;6.10;99.90;;;;;;5030524;28;20073;-79
2023/04/08 03:33:30;;;;;;;4.07;2.47;;;;;;;;;;5047546;28;20448;-80
2023/04/08 03:35:56;;;;;;;3.45;1.90;;;;;;;;;;5045171;28;20029;-80
2023/04/08 03:38:23;;;;;;;6.60;3.35;;;;;;;;;;5038323;28;20131;-80
2023/04/08 03:40:48;;;;;;;5.60;2.72;;;;;;;;;;5045606;28;20029;-80
2023/04/08 03:43:15;;;;;;;6.55;2.85;;;;;;;;;;5050302;28;20060;-81
2023/04/08 03:45:41;;;;;;;6.95;3.03;;;;;;;;;;5042198;28;20385;-80
2023/04/08 03:48:06;;;;;;;6.32;3.63;;;6.70;99.90;;;;;;5051825;28;20132;-79
2023/04/08 03:50:32;;;;;;;4.63;2.60;;;;;;;;;;5045947;28;20040;-79
2023/04/08 03:52:58;;;;;;;4.28;2.80;;;;;;;;;;5043258;28;20036;-80
2023/04/08 03:55:24;;;;;;;5.57;3.10;;;;;;;;;;5044571;28;20033;-80
2023/04/08 03:57:50;;;;;;;9.25;2.85;;;;;;;;;;5041476;28;20044;-79
2023/04/08 04:00:17;;;;;;;4.63;2.72;;;;;;;;;;5039931;28;20033;-80
2023/04/08 04:02:44;;;;;;;6.18;2.85;;;;;;;;;;5036646;28;20052;-81
2023/04/08 04:05:10;;;;;;;6.20;3.03;;;;;;;;;;5041720;28;20114;-79
2023/04/08 04:07:36;;;;;;;6.65;3.05;;;;;;;;;;5036273;28;20090;-79
2023/04/08 04:10:02;;;;;;;7.10;3.22;;;;;;;;;;5051573;28;20032;-79
2023/04/08 04:12:28;;;;;;;6.53;3.10;;;;;;;;;;5044768;28;20040;-79
2023/04/08 04:14:54;;;;;;;8.73;3.10;;;;;;;;;;5046398;28;20017;-79
2023/04/08 04:17:20;;;;;;;4.88;2.85;;;;;;;;;;5039758;28;20083;-80
2023/04/08 04:19:46;;;;;;;7.28;3.10;;;;;;;;;;5043799;28;20025;-79
2023/04/08 04:22:12;;;;;;;7.20;3.67;;;;;;;;;;5038951;28;20307;-79
2023/04/08 04:24:38;;;;;;;8.30;3.67;;;;;;;;;;5033630;28;20049;-79
2023/04/08 04:27:04;;;;;;;7.50;3.45;;;5.80;99.90;;;;;;5042962;28;20025;-79
2023/04/08 04:29:31;;;;;;;5.10;3.00;;;;;;;;;;5040584;28;20048;-79
2023/04/08 04:31:56;;;;;;;7.60;3.88;;;;;;;;;;5038240;28;20033;-80
2023/04/08 04:34:22;;;;;;;5.35;3.33;;;;;;;;;;5047655;28;20017;-80
2023/04/08 04:36:48;;;;;;;9.07;3.03;;;;;;;;;;5044400;28;20452;-79
2023/04/08 04:39:14;;;;;;;6.65;3.42;;;;;;;;;;5044185;28;20424;-79
2023/04/08 04:41:40;;;;;;;6.22;2.92;;;;;;;;;;5035912;28;20475;-80
2023/04/08 04:44:06;;;;;;;5.45;2.85;;;;;;;;;;5033314;28;20033;-79
2023/04/08 04:46:32;;;;;;;6.57;3.53;;;;;;;;;;5043000;28;20300;-80
2023/04/08 04:48:58;;;;;;;4.57;2.40;;;;;;;;;;5041973;28;20025;-80
2023/04/08 04:51:25;;;;;;;6.85;3.88;;;;;;;;;;5045268;28;20429;-80
2023/04/08 04:53:51;;;;;;;6.70;2.90;;;;;;;;;;5045733;28;20033;-79
2023/04/08 04:56:17;;;;;;;8.20;3.45;;;;;;;;;;5046951;28;20025;-79
2023/04/08 04:58:43;;;;;;;5.10;2.40;;;;;;;;;;5042652;28;20497;-80
2023/04/08 05:01:09;;;;;;;10.95;3.35;;;;;;;;;;5043698;28;20370;-79
2023/04/08 05:03:35;;;;;;;5.65;2.75;;;;;;;;;;5042891;28;20029;-80
2023/04/08 05:06:01;;;;;;;7.75;3.38;;;;;;;;;;5046499;28;20543;-80
2023/04/08 05:08:27;;;;;;;8.32;4.05;;;;;;;;;;5046799;28;20431;-79
2023/04/08 05:10:54;;;;;;;7.55;4.05;;;;;;;;;;5040951;28;20713;-80
2023/04/08 05:13:21;;;;;;;6.00;3.55;;;;;;;;;;5045735;28;20128;-81
2023/04/08 05:15:47;;;;;;;8.85;4.43;;;;;;;;;;5042381;28;20293;-80
2023/04/08 05:18:13;;;;;;;6.10;3.25;;;;;;;;;;5041561;28;20025;-80
2023/04/08 05:20:39;;;;;;;5.35;3.03;;;;;;;;;;5045489;28;20354;-80
2023/04/08 05:23:06;;;;;;;7.50;3.70;;;;;;;;;;5043891;28;20032;-82
2023/04/08 05:25:32;;;;;;;10.52;4.35;;;;;;;;;;5043631;28;20036;-81
2023/04/08 05:27:58;;;;;;;13.73;4.60;;;;;;;;;;5038189;28;20040;-80
2023/04/08 05:30:24;;;;;;;7.75;3.80;;;;;;;;;;5036014;28;20457;-83
2023/04/08 05:32:50;;;;;;;8.82;3.50;;;;;;;;;;5041801;28;20332;-80
2023/04/08 05:35:16;;;;;;;8.88;3.85;;;;;;;;;;5041881;28;20080;-79
2023/04/08 05:37:42;;;;;;;10.43;4.93;;;;;;;;;;5047322;28;20036;-79
2023/04/08 05:40:08;;;;;;;7.20;3.75;;;;;;;;;;5032547;28;20032;-80
2023/04/08 05:42:34;;;;;;;7.20;4.15;;;;;;;;;;5036343;28;20129;-79
2023/04/08 05:45:00;;;;;;;7.65;4.28;;;;;;;;;;5041172;28;20025;-86
2023/04/08 05:47:26;;;;;;;7.63;4.78;;;;;;;;;;5030984;28;20038;-82
2023/04/08 05:49:52;;;;;;;11.43;5.07;;;;;;;;;;5035239;28;20160;-81
2023/04/08 05:52:18;;;;;;;12.60;5.35;;;;;;;;;;5041878;28;20041;-80
2023/04/08 05:54:45;;;;;;;8.68;3.78;;;;;;;;;;5037208;28;20564;-80
2023/04/08 05:57:11;;;;;;;7.72;4.57;;;;;;;;;;5042341;28;20096;-85
2023/04/08 05:59:37;;;;;;;9.27;5.07;;;;;;;;;;5028798;28;20056;-80
2023/04/08 06:02:03;;;;;;;8.27;4.95;;;;;;;;;;5030482;28;20025;-78
2023/04/08 06:04:29;;;;;;;11.75;5.95;;;;;;;;;;5038375;28;20044;-79
2023/04/08 06:06:58;;;;;;;7.55;4.43;;;;;;;;;;5044961;28;20512;-79
2023/04/08 06:09:24;;;;;;;9.95;5.07;;;;;;;;;;5041083;28;20048;-79
2023/04/08 06:11:50;;;;;;;10.45;4.93;;;;;;;;;;5039371;28;20059;-80
2023/04/08 06:14:16;;;;;;;8.40;4.20;;;;;;;;;;5044812;28;20541;-77
2023/04/08 06:16:42;;;;;;;9.65;5.43;;;;;;;;;;5035850;28;20428;-78
2023/04/08 06:19:08;;;;;;;11.13;5.18;;;;;;;;;;5036757;28;20049;-81
2023/04/08 06:21:34;;;;;;;10.10;5.72;;;;;;;;;;5042906;28;20388;-80
2023/04/08 06:24:00;;;;;;;11.73;5.65;;;;;;;;;;5041857;28;20404;-80
2023/04/08 06:26:26;;;;;;;10.90;5.65;;;;;;;;;;5036238;28;20082;-79
2023/04/08 06:28:52;;;;;;;9.38;4.85;;;;;;;;;;5032075;28;20052;-80
2023/04/08 06:31:18;;;;;;;7.65;4.15;;;;;;;;;;5033926;28;20074;-82
2023/04/08 06:33:44;;;;;;;14.80;6.28;;;;;;;;;;5041486;28;20033;-82
2023/04/08 06:36:12;;;;;;;9.27;5.45;;;;;;;;;;5031303;28;20053;-82
2023/04/08 06:38:38;;;;;;;15.38;6.10;;;;;;;;;;5023185;28;20029;-83
2023/04/08 06:41:05;;;;;;;13.93;5.53;;;;;;;;;;5035863;28;20026;-83
2023/04/08 06:43:31;;;;;;;11.55;6.35;;;;;;;;;;5039292;28;20040;-82
2023/04/08 06:45:57;;;;;;;10.77;6.18;;;;;;;;;;5046023;28;20029;-83
2023/04/08 06:48:27;;;;;;;13.50;7.18;;;;;;;;;;5044245;28;20083;-82
2023/04/08 06:50:53;;;;;;;14.88;7.60;;;;;;;;;;5031041;28;20033;-81
2023/04/08 06:53:19;;;;;;;17.48;8.82;;;;;;;;;;5042965;28;20040;-82
2023/04/08 06:55:45;;;;;;;15.27;7.35;;;;;;;;;;5045562;28;20020;-82
2023/04/08 06:58:11;;;;;;;18.33;7.47;;;;;;;;;;5044009;28;20017;-83
2023/04/08 07:00:37;;;;;;;19.52;9.50;;;;;;;;;;5049002;28;20037;-83
2023/04/08 07:03:03;;;;;;;11.30;6.07;;;8.50;99.90;;;;;;5050610;28;20039;-81
2023/04/08 07:05:29;;;;;;;9.63;5.10;;;;;;;;;;5038929;28;20509;-80
2023/04/08 07:07:55;;;;;;;9.68;5.38;;;;;;;;;;5029696;28;20056;-82
2023/04/08 07:10:21;;;;;;;17.65;6.10;;;;;;;;;;5040846;28;20024;-83
2023/04/08 07:12:47;;;;;;;11.93;5.90;;;;;;;;;;5035200;28;20033;-83
2023/04/08 07:15:12;;;;;;;12.23;5.20;;;;;;;;;;5042019;28;20028;-81
2023/04/08 07:17:38;;;;;;;12.70;5.63;;;;;;;;;;5034762;28;20032;-81
2023/04/08 07:20:05;;;;;;;12.40;5.78;;;;;;;;;;5031301;28;20040;-80
2023/04/08 07:22:31;;;;;;;11.18;6.57;;;;;;;;;;5036934;28;20025;-81
2023/04/08 07:24:57;;;;;;;18.02;6.25;;;;;;;;;;5040498;28;20100;-81
2023/04/08 07:27:23;;;;;;;15.93;6.32;;;;;;;;;;5045367;28;20040;-81
2023/04/08 07:29:53;;;;;;;10.80;5.40;;;;;;;;;;5047723;28;20031;-80
2023/04/08 07:32:19;;;;;;;8.38;4.68;;;;;;;;;;5042438;28;20489;-81
2023/04/08 07:34:45;;;;;;;11.68;4.75;;;;;;;;;;5040611;28;20511;-80
2023/04/08 07:37:11;;;;;;;11.68;5.60;;;;;;;;;;5043194;28;20524;-81
2023/04/08 07:39:37;;;;;;;7.28;4.70;;;;;;;;;;5040696;28;20059;-82
2023/04/08 07:42:03;;;;;;;11.43;4.88;;;;;;;;;;5040614;28;20040;-80
2023/04/08 07:44:29;;;;;;;15.40;5.28;;;10.20;99.90;;;;;;5042725;28;20028;-78
2023/04/08 07:46:55;;;;;;;8.70;3.78;;;;;;;;;;5046621;28;20043;-82
2023/04/08 07:49:21;;;;;;;13.57;5.20;;;;;;;;;;5045616;28;20785;-79
2023/04/08 07:51:47;;;;;;;10.60;5.10;;;;;;;;;;5042429;28;20090;-81
2023/04/08 07:54:16;;;;;;;8.50;4.63;;;;;;;;;;5039977;28;20945;-81
2023/04/08 07:56:43;;;;;;;8.48;3.85;;;;;;;;;;5013688;28;20086;-83
2023/04/08 07:59:09;;;;;;;8.73;4.03;;;9.90;99.90;;;;;;5035420;28;20095;-81
2023/04/08 08:01:35;;;;;;;8.57;3.97;;;11.10;99.90;;;;;;5046243;28;20082;-81
2023/04/08 08:04:01;;;;;;;4.70;3.22;;;;;;;;;;5043189;28;20579;-81
2023/04/08 08:06:27;;;;;;;6.05;2.95;;;10.00;99.90;;;;;;5045538;28;20106;-81
2023/04/08 08:08:53;;;;;;;7.25;3.55;;;;;;;;;;5034204;28;20029;-83
2023/04/08 08:11:20;;;;;;;7.68;3.40;;;;;;;;;;5040882;28;20037;-82
2023/04/08 08:13:46;;;;;;;6.32;2.95;;;;;;;;;;5043911;28;20124;-81
2023/04/08 08:16:14;;;;;;;6.40;3.17;;;;;;;;;;5042042;28;20025;-80
2023/04/08 08:18:40;;;;;;;5.55;3.28;;;;;;;;;;5034216;28;20040;-80
2023/04/08 08:21:07;;;;;;;8.77;3.75;;;;;;;;;;5038169;28;20506;-81
2023/04/08 08:23:33;;;;;;;8.52;3.40;;;;;;;;;;5036464;28;20037;-81
2023/04/08 08:26:05;;;;;;;11.25;3.78;;;10.50;99.90;;;;;;5036471;28;20035;-80
2023/04/08 08:28:32;;;;;;;6.38;3.47;;;;;;;;;;5047507;28;20049;-81
2023/04/08 08:30:58;;;;;;;6.43;2.63;;;10.40;99.90;;;;;;5042695;28;20026;-80
2023/04/08 08:33:24;;;;;;;4.07;2.50;;;;;;;;;;5038840;28;20037;-81
2023/04/08 08:35:51;;;;;;;4.50;2.63;;;;;;;;;;5038102;28;20056;-81
2023/04/08 08:38:17;;;;;;;5.40;3.05;;;;;;;;;;5038755;28;20032;-80
2023/04/08 08:40:46;;;;;;;5.13;2.88;;;;;;;;;;5038459;28;20033;-81
2023/04/08 08:43:12;;;;;;;7.45;2.75;;;;;;;;;;5041004;28;20074;-80
2023/04/08 08:45:39;;;;;;;6.90;2.97;;;9.20;99.90;;;;;;5039780;28;20021;-80
2023/04/08 08:48:07;;;;;;;5.45;3.65;;;;;;;;;;5045357;28;20094;-81
2023/04/08 08:50:33;;;;;;;3.80;2.15;;;10.00;99.90;;;;;;5038190;28;20027;-81
2023/04/08 08:52:59;;;;;;;6.32;2.80;;;;;;;;;;5050983;28;22833;-81
2023/04/08 08:55:25;;;;;;;5.40;2.83;;;;;;;;;;5051183;28;20033;-81
2023/04/08 08:57:51;;;;;;;5.10;2.58;;;;;;;;;;5041804;28;20132;-83
2023/04/08 09:00:17;;;;;;;5.57;2.88;;;;;;;;;;5049394;28;20031;-82
2023/04/08 09:02:43;;;;;;;5.13;2.30;;;;;;;;;;5059203;28;20048;-81
2023/04/08 09:05:09;;;;;;;5.53;2.97;;;;;;;;;;5056612;28;20029;-81
2023/04/08 09:07:36;;;;;;;8.07;2.88;;;;;;;;;;5063691;28;20113;-82
2023/04/08 09:10:02;;;;;;;3.92;2.55;;;;;;;;;;5046248;28;20039;-80
2023/04/08 09:12:30;;;;;;;5.38;2.75;;;;;;;;;;5037641;28;20452;-79
2023/04/08 09:15:05;;;;;;;3.28;2.05;;;;;;;;;;5043862;28;20520;-80
2023/04/08 09:17:33;;;;;;;3.72;2.40;;;;;;;;;;5038568;28;20082;-81
2023/04/08 09:20:12;;;;;;;10.77;2.85;;;;;;;;;;5046984;28;20029;-81
2023/04/08 09:22:56;;;;;;;5.55;2.63;;;;;;;;;;5031921;28;20055;-81
2023/04/08 09:25:26;;;;;;;8.55;3.22;;;10.10;99.90;;;;;;5035860;28;21025;-82
2023/04/08 09:27:53;;;;;;;4.63;2.53;;;;;;;;;;5044636;28;20056;-81
2023/04/08 09:30:19;;;;;;;3.72;2.22;;;;;;;;;;5045770;28;21178;-81
2023/04/08 09:32:48;;;;;;;6.90;3.30;;;;;;;;;;5047436;28;20037;-82
2023/04/08 09:35:16;;;;;;;5.53;2.20;;;;;;;;;;5046424;28;20127;-81
2023/04/08 09:37:42;;;;;;;7.07;2.78;;;;;;;;;;5046056;28;20380;-81
2023/04/08 09:40:08;;;;;;;4.00;2.47;;;;;;;;;;5045551;28;20111;-82
2023/04/08 09:42:36;;;;;;;10.10;3.33;;;;;;;;;;5042584;28;20033;-81
2023/04/08 09:45:04;;;;;;;3.83;2.03;;;;;;;;;;5043813;28;20021;-82
2023/04/08 09:47:33;;;;;;;5.38;2.75;;;;;;;;;;5036553;28;20037;-80
2023/04/08 09:50:03;;;;;;;6.07;2.47;;;;;;;;;;5039476;28;20070;-84
2023/04/08 09:52:39;;;;;;;4.97;2.80;;;;;;;;;;5039528;28;20033;-82
2023/04/08 09:55:05;;;;;;;6.05;2.15;;;;;;;;;;5039436;28;20037;-83
2023/04/08 09:57:37;;;;;;;4.20;1.95;;;;;;;;;;5045700;28;20036;-81
2023/04/08 10:00:09;;;;;;;8.53;2.50;;;9.70;99.90;;;;;;5039765;28;20029;-84
2023/04/08 10:02:40;;;;;;;5.35;2.83;;;;;;;;;;5049215;28;20362;-81
2023/04/08 10:05:07;;;;;;;4.55;2.38;;;;;;;;;;5044537;28;20036;-82
2023/04/08 10:07:35;;;;;;;4.85;2.28;;;;;;;;;;5037951;28;20136;-81
2023/04/08 10:10:00;;;;;;;6.22;1.90;;;;;;;;;;5030566;28;20025;-84
2023/04/08 10:12:27;;;;;;;7.05;2.65;;;;;;;;;;5041612;28;20062;-79
2023/04/08 10:15:19;;;;;;;4.55;2.65;;;;;;;;;;5038079;28;20021;-82
2023/04/08 10:17:45;;;;;;;6.03;2.80;;;;;;;;;;5042841;28;20052;-83
2023/04/08 10:20:49;;;;;;;4.72;2.08;;;;;;;;;;5039244;28;20095;-81
2023/04/08 10:23:16;;;;;;;5.07;2.42;;;10.30;99.90;;;;;;5000183;28;20091;-80
2023/04/08 10:25:43;;;;;;;4.50;2.03;;;;;;;;;;5006896;28;20033;-80
2023/04/08 10:28:12;;;;;;;4.63;2.33;;;;;;;;;;5020587;28;20052;-81
2023/04/08 10:30:38;;;;;;;4.90;3.17;;;;;;;;;;5031280;28;20052;-80
2023/04/08 10:33:11;;;;;;;6.70;3.63;;;11.20;99.90;;;;;;5032536;28;20029;-82
2023/04/08 10:35:41;;;;;;;8.40;2.87;;;;;;;;;;5039158;28;20025;-82
2023/04/08 10:38:07;;;;;;;8.00;4.53;;;11.00;99.90;;;;;;5041780;28;20279;-83
2023/04/08 10:40:41;;;;;;;4.68;3.03;;;;;;;;;;5041365;28;20031;-80
2023/04/08 10:43:08;;;;;;;5.07;2.53;;;11.10;99.90;;;;;;5037434;28;20029;-81
2023/04/08 10:45:34;;;;;;;7.13;2.42;;;;;;;;;;5038540;28;20048;-79
2023/04/08 10:48:13;;;;;;;5.95;3.42;;;;;;;;;;5022441;28;20115;-80
2023/04/08 10:50:39;;;;;;;8.00;3.25;;;;;;;;;;5039492;28;20389;-78
2023/04/08 10:53:06;;;;;;;4.55;2.63;;;;;;;;;;5039991;28;20075;-79
2023/04/08 10:55:33;;;;;;;5.03;3.03;;;;;;;;;;5045929;28;20021;-80
2023/04/08 10:58:06;;;;;;;7.85;3.08;;;11.00;99.90;;;;;;5041697;28;20047;-84
2023/04/08 11:00:32;;;;;;;;;;;;;;;;;;5031695;28;20037;-83
2023/04/08 11:03:02;;;;;;;5.03;2.53;;;;;;;;;;5047087;28;19912;-79
2023/04/08 11:05:28;;;;;;;3.95;2.45;;;;;;;;;;5043220;28;20431;-83
2023/04/08 11:07:54;;;;;;;4.38;3.00;;;;;;;;;;5044827;28;20099;-80
2023/04/08 11:10:20;;;;;;;4.32;2.50;;;;;;;;;;5041317;28;20079;-80
2023/04/08 11:12:46;;;;;;;5.78;3.25;;;;;;;;;;5046541;28;20513;-80
2023/04/08 11:15:13;;;;;;;4.15;2.20;;;;;;;;;;5044090;28;20164;-81
2023/04/08 11:17:38;;;;;;;6.30;3.08;;;12.10;99.90;;;;;;5046883;28;20401;-81
2023/04/08 11:20:05;;;;;;;4.05;2.28;;;11.70;99.90;;;;;;5044474;28;20079;-81
2023/04/08 11:22:33;;;;;;;3.78;2.53;;;11.80;99.90;;;;;;5040572;28;20056;-83
2023/04/08 11:24:59;;;;;;;4.55;2.63;;;;;;;;;;5049842;28;20053;-80
2023/04/08 11:27:25;;;;;;;8.50;2.80;;;11.90;99.90;;;;;;5047333;28;20139;-81
2023/04/08 11:29:55;;;;;;;5.30;2.88;;;;;;;;;;5039435;28;20680;-81
2023/04/08 11:32:22;;;;;;;4.82;2.38;;;11.40;99.90;;;;;;5048205;28;20033;-82
2023/04/08 11:34:48;;;;;;;4.05;2.00;;;;;;;;;;5043237;28;20488;-80
2023/04/08 11:37:14;;;;;;;5.88;2.15;;;;;;;;;;5038910;28;20037;-80
2023/04/08 11:39:44;;;;;;;3.33;2.00;;;;;;;;;;5044266;28;20025;-82
2023/04/08 11:42:25;;;;;;;4.82;2.30;;;12.60;99.90;;;;;;5036159;28;20045;-85
2023/04/08 11:44:51;;;;;;;4.47;1.75;;;;;;;;;;5043225;28;20048;-82
2023/04/08 11:47:17;;;;;;;3.13;1.75;;;12.00;99.90;;;;;;5044514;28;20036;-80
2023/04/08 11:49:44;;;;;;;2.72;1.35;;;;;;;;;;5041359;28;20025;-80
2023/04/08 11:52:10;;;;;;;3.65;1.42;;;;;;;;;;5034996;28;20040;-84
2023/04/08 11:54:40;;;;;;;7.88;1.90;;;;;;;;;;5039830;28;20044;-83
2023/04/08 11:57:06;;;;;;;3.95;1.33;;;;;;;;;;5040048;28;20373;-84
2023/04/08 11:59:34;;;;;;;4.00;2.17;;;;;;;;;;5028666;28;20037;-81
2023/04/08 12:02:02;;;;;;;5.25;1.60;;;;;;;;;;5045414;28;20492;-84
2023/04/08 12:04:29;;;;;;;2.38;1.45;;;;;;;;;;5037568;28;20616;-84
2023/04/08 12:06:55;;;;;;;2.22;1.35;;;;;;;;;;5047657;28;20029;-83
2023/04/08 12:09:29;;;;;;;3.83;2.08;;;;;;;;;;5038362;22;20065;-82
2023/04/08 12:11:56;;;;;;;2.20;1.58;;;;;;;;;;5044432;28;20046;-83
2023/04/08 12:14:43;;;;;;;2.78;1.63;;;;;;;;;;5028922;28;20060;-83
2023/04/08 12:17:31;;;;;;;4.75;2.15;;;;;;;;;;5022766;28;20115;-82
2023/04/08 12:20:03;;;;;;;4.30;2.10;;;;;;;;;;5024854;28;20033;-83
2023/04/08 12:22:52;;;;;;;3.75;1.98;;;;;;;;;;5032123;28;20038;-82
2023/04/08 12:25:18;;;;;;;5.28;2.00;;;;;;;;;;5040879;28;20037;-83
2023/04/08 12:27:47;;;;;;;3.92;2.00;;;;;;;;;;5026183;28;20088;-82
2023/04/08 12:30:13;;;;;;;5.63;2.55;;;;;;;;;;5024667;28;20037;-83
2023/04/08 12:33:19;;;;;;;3.25;1.35;;;;;;;;;;5025839;28;20697;-83
2023/04/08 12:35:53;;;;;;;4.15;2.33;;;;;;;;;;4927164;28;20689;-82
2023/04/08 12:41:34;;;;;;;3.58;2.03;;;;;;;;;;4986928;28;20050;-83
2023/04/08 12:47:41;;;;;;;5.07;1.98;;;;;;;;;;5026477;28;20037;-82
2023/04/08 12:50:10;;;;;;;5.55;2.88;;;;;;;;;;5010721;28;20485;-83
2023/04/08 12:52:36;;;;;;;3.88;2.08;;;;;;;;;;4950923;28;20042;-82
2023/04/08 12:55:12;;;;;;;4.47;2.38;;;;;;;;;;4944031;28;20075;-83
2023/04/08 12:58:08;;;;;;;;;;;;;;;;;;;;;
2023/04/08 13:00:36;;;;;;;2.95;1.80;;;;;;;;;;4964984;28;20045;-82
2023/04/08 13:03:05;;;;;;;2.97;1.83;;;;;;;;;;4950179;28;20102;-83
2023/04/08 13:05:40;;;;;;;5.75;2.10;;;;;;;;;;4947728;28;20687;-82
2023/04/08 13:10:55;;;;;;;4.28;1.75;;;;;;;;;;4947648;28;20034;-83
2023/04/08 13:13:50;;;;;;;3.88;1.67;;;;;;;;;;4954018;28;20051;-83
2023/04/08 13:16:34;;;;;;;3.55;1.67;;;;;;;;;;4962113;28;20190;-83
2023/04/08 13:19:27;;;;;;;4.15;2.13;;;;;;;;;;4986352;28;20521;-83
2023/04/08 13:21:56;;;;;;;2.47;1.33;;;;;;;;;;4990010;28;20109;-83
2023/04/08 13:24:29;;;;;;;2.92;1.75;;;;;;;;;;4986962;28;20031;-83
2023/04/08 13:26:58;;;;;;;4.38;2.05;;;;;;;;;;5000631;28;20026;-83
2023/04/08 13:29:53;;;;;;;3.95;2.20;;;;;;;;;;4999657;28;20494;-83
2023/04/08 13:32:21;;;;;;;3.72;1.98;;;;;;;;;;4984392;28;20125;-83
2023/04/08 13:34:47;;;;;;;4.90;2.10;;;;;;;;;;4986265;28;20034;-83
2023/04/08 13:37:13;;;;;;;6.68;2.17;;;;;;;;;;4991242;28;20026;-83
2023/04/08 13:39:39;;;;;;;3.70;1.98;;;;;;;;;;4993391;28;20397;-83
2023/04/08 13:45:32;;;;;;;4.90;1.95;;;;;;;;;;4956601;28;20038;-83
2023/04/08 13:48:22;;;;;;;3.33;1.50;;;;;;;;;;4982213;28;20392;-82
2023/04/08 13:51:03;;;;;;;5.90;2.78;;;;;;;;;;4997405;28;20084;-82
2023/04/08 13:59:32;;;;;;;4.70;2.03;;;;;;;;;;4984858;28;20045;-84
2023/04/08 14:02:16;;;;;;;3.83;2.35;;;;;;;;;;4988678;28;20190;-85
2023/04/08 14:04:52;;;;;;;3.92;2.20;;;;;;;;;;4995901;28;20027;-84
2023/04/08 14:07:22;;;;;;;3.13;1.98;;;;;;;;;;5000859;28;20049;-84
2023/04/08 14:09:49;;;;;;;3.28;1.58;;;;;;;;;;5003273;28;20027;-83
2023/04/08 14:12:28;;;;;;;3.42;1.65;;;;;;;;;;4989935;28;20027;-83
2023/04/08 14:15:01;;;;;;;2.72;1.50;;;;;;;;;;4989247;28;20033;-83
2023/04/08 14:17:34;;;;;;;3.95;2.10;;;;;;;;;;4983135;28;20189;-83
2023/04/08 14:20:05;;;;;;;5.70;2.13;;;;;;;;;;4993372;28;20514;-84
2023/04/08 14:22:47;;;;;;;3.22;1.83;;;;;;;;;;4991620;28;20034;-83
2023/04/08 14:25:13;;;;;;;6.10;2.05;;;;;;;;;;5010130;28;20030;-83
2023/04/08 14:27:41;;;;;;;2.70;1.40;;;;;;;;;;4985333;28;20034;-82
2023/04/08 14:30:20;;;;;;;6.28;2.42;;;;;;;;;;4991788;28;20026;-83
2023/04/08 14:32:46;;;;;;;3.45;2.20;;;;;;;;;;4993348;28;20062;-83
2023/04/08 14:35:14;;;;;;;4.43;2.28;;;;;;;;;;4995511;28;20080;-83
2023/04/08 14:37:46;;;;;;;4.75;2.25;;;;;;;;;;4985935;28;20030;-83
2023/04/08 14:40:16;;;;;;;3.65;2.30;;;;;;;;;;4989991;28;20026;-83
2023/04/08 14:42:48;;;;;;;4.70;2.47;;;;;;;;;;4988765;28;20126;-83
2023/04/08 14:45:14;;;;;;;4.38;2.30;;;;;;;;;;4987665;28;20206;-83
2023/04/08 14:47:40;;;;;;;8.25;2.35;;;;;;;;;;5005542;28;20030;-83
2023/04/08 14:50:07;;;;;;;4.20;2.08;;;;;;;;;;4988059;28;20037;-83
2023/04/08 14:52:33;;;;;;;6.53;3.22;;;;;;;;;;4982564;28;20026;-83
2023/04/08 14:54:58;;;;;;;4.70;2.30;;;;;;;;;;4989698;28;20030;-83
2023/04/08 14:57:25;;;;;;;3.17;1.88;;;;;;;;;;4984348;28;20771;-82